Hovedside
METAR-TAF:

METAR-TAF

Lufthavner :

Florø lufthavn

Florø, Norge

breddegrad: 61-35N, lengdegrad: 005-02E, høyde over havet: 0 m

Gjeldene værobservasjon

Denne rapporten ble laget for 17 minutter siden, klokken 20:20 UTC
Vind 8 kt fra Øst
Temperatur 2°C
Luftfuktighet 75%
Trykk 1013 hPa
Sikt 10 km eller mer
ingen skyer under 1500 m og ingen bygeskyer

METAR: ENFL 142020Z 09008KT CAVOK 02/M02 Q1013

Tid: 21:37 (20:37 UTC)

Varsel

Denne rapporten ble laget for 3 timer og 37 minutter siden, klokken 17:00 UTC
Varsel gyldig fra 14. klokken 18 UTC til 14. klokken 23 UTC
Vind 8 kt fra Øst
Sikt 10 km eller mer
Få skyer i en høyde av 2000 ft

TAF: ENFL 141700Z 1418/1423 08008KT 9999 FEW020

Værobservasjoner og værvarsel for over 4000 flyplasser (METAR- og TAF-rapporter).

Tilgjengelige stasjoner er representert av de røde og gule prikkene på kartet.

Hold musepekeren over prikken for å se navnet på stasjonen.

Klikk så for å se værobservasjoner og -varsler.

For å forandre kartet kan du klikke på den grønne knappen med svart kryss for å zoome inn, på den grønne knappen med strek for å zoome ut, eller på de grønne pilene for å se tilstøtende kart.


METAR-TAF: